createdAt,value
2022-10-18T00:07:35.956Z,100.00
2022-10-18T00:17:39.313Z,100.00
2022-10-18T00:27:41.133Z,100.00
2022-10-18T00:37:42.946Z,100.00
2022-10-18T00:47:53.553Z,100.00
2022-10-18T00:57:58.338Z,100.00
2022-10-18T01:08:27.995Z,100.00
2022-10-18T01:18:54.491Z,100.00
2022-10-18T01:29:15.795Z,100.00
2022-10-18T01:39:40.207Z,100.00
2022-10-18T01:49:43.897Z,100.00
2022-10-18T01:59:59.056Z,100.00
2022-10-18T02:20:26.327Z,100.00
2022-10-18T02:31:10.891Z,100.00
2022-10-18T02:41:22.315Z,100.00
2022-10-18T02:51:29.092Z,100.00
2022-10-18T03:01:30.980Z,100.00
2022-10-18T03:11:33.044Z,100.00
2022-10-18T03:21:34.739Z,100.00
2022-10-18T03:31:36.542Z,100.00
2022-10-18T03:41:38.132Z,100.00
2022-10-18T03:51:41.859Z,100.00
2022-10-18T04:01:43.370Z,100.00
2022-10-18T04:11:47.743Z,100.00
2022-10-18T04:21:51.429Z,100.00
2022-10-18T04:31:53.208Z,100.00
2022-10-18T04:41:56.874Z,100.00
2022-10-18T04:51:59.394Z,100.00
2022-10-18T05:02:01.075Z,100.00
2022-10-18T05:12:02.784Z,100.00
2022-10-18T05:22:04.430Z,100.00
2022-10-18T05:32:06.026Z,100.00
2022-10-18T05:42:08.357Z,100.00
2022-10-18T05:52:09.942Z,100.00
2022-10-18T06:02:13.088Z,100.00
2022-10-18T06:12:14.781Z,100.00
2022-10-18T06:22:19.722Z,100.00
2022-10-18T06:32:25.760Z,100.00
2022-10-18T06:42:27.299Z,100.00
2022-10-18T06:52:30.030Z,100.00
2022-10-18T07:02:32.108Z,100.00
2022-10-18T07:12:34.380Z,100.00
2022-10-18T07:22:38.201Z,100.00
2022-10-18T07:32:40.019Z,100.00
2022-10-18T07:42:41.563Z,100.00
2022-10-18T07:52:43.191Z,100.00
2022-10-18T08:02:44.888Z,100.00
2022-10-18T08:12:51.813Z,84.87
2022-10-18T08:22:57.713Z,73.45
2022-10-18T08:33:02.366Z,59.03
2022-10-18T08:43:09.022Z,53.83
2022-10-18T08:53:19.519Z,49.01
2022-10-18T09:03:56.192Z,44.69
2022-10-18T09:14:35.102Z,42.99
2022-10-18T09:24:50.975Z,40.44
2022-10-18T09:35:20.004Z,37.92
2022-10-18T09:45:32.726Z,35.99
2022-10-18T09:55:43.199Z,34.13
2022-10-18T10:05:45.454Z,31.99
2022-10-18T10:15:56.787Z,29.87
2022-10-18T10:26:02.744Z,28.55
2022-10-18T10:36:16.002Z,27.33
2022-10-18T10:46:21.633Z,26.89
2022-10-18T10:56:33.652Z,25.78
2022-10-18T11:07:01.671Z,25.01
2022-10-18T11:17:32.487Z,25.22
2022-10-18T11:27:55.410Z,21.98
2022-10-18T11:38:35.314Z,21.99
2022-10-18T11:49:00.138Z,22.18
2022-10-18T11:59:52.277Z,20.29
2022-10-18T12:09:55.610Z,18.67
2022-10-18T12:20:00.150Z,17.96
2022-10-18T12:30:34.676Z,18.13
2022-10-18T12:40:43.419Z,18.16
2022-10-18T12:50:45.101Z,15.88
2022-10-18T13:00:50.634Z,16.55
2022-10-18T13:11:27.518Z,14.94
2022-10-18T13:21:43.519Z,14.74
2022-10-18T13:32:11.023Z,13.81
2022-10-18T13:42:28.512Z,13.55
2022-10-18T13:53:05.524Z,15.31
2022-10-18T14:14:17.354Z,15.04
2022-10-18T14:24:25.869Z,16.16
2022-10-18T14:34:27.684Z,17.17
2022-10-18T14:44:35.562Z,25.22
2022-10-18T14:54:39.988Z,30.60
2022-10-18T15:04:44.915Z,33.24
2022-10-18T15:14:55.617Z,35.47
2022-10-18T15:25:30.806Z,37.70
2022-10-18T15:35:35.887Z,38.82
2022-10-18T15:45:45.550Z,43.33
2022-10-18T15:55:55.722Z,44.15
2022-10-18T16:06:05.594Z,47.94
2022-10-18T16:16:09.704Z,48.53
2022-10-18T16:26:12.999Z,57.08
2022-10-18T16:36:21.470Z,67.09
2022-10-18T16:46:28.699Z,71.96
2022-10-18T16:56:32.647Z,82.44
2022-10-18T17:06:38.392Z,85.27
2022-10-18T17:16:45.410Z,93.84
2022-10-18T17:26:51.442Z,94.29
2022-10-18T17:36:53.505Z,100.00
2022-10-18T17:46:55.530Z,99.31
2022-10-18T17:57:09.488Z,100.00
2022-10-18T18:07:13.584Z,100.00
2022-10-18T18:17:18.791Z,100.00
2022-10-18T18:27:23.453Z,100.00
2022-10-18T18:37:28.390Z,100.00
2022-10-18T18:47:30.552Z,100.00
2022-10-18T18:57:33.199Z,100.00
2022-10-18T19:07:38.520Z,100.00
2022-10-18T19:17:47.563Z,100.00
2022-10-18T19:27:49.676Z,100.00
2022-10-18T19:37:51.913Z,100.00
2022-10-18T19:47:53.876Z,100.00
2022-10-18T19:57:55.808Z,100.00
2022-10-18T20:07:58.506Z,100.00
2022-10-18T20:18:02.374Z,100.00
2022-10-18T20:28:04.946Z,100.00
2022-10-18T20:38:08.633Z,100.00
2022-10-18T20:48:10.321Z,100.00
2022-10-18T20:58:12.463Z,100.00
2022-10-18T21:08:16.112Z,100.00
2022-10-18T21:18:17.752Z,100.00
2022-10-18T21:28:19.320Z,100.00
2022-10-18T21:38:21.946Z,100.00
2022-10-18T21:48:23.613Z,100.00
2022-10-18T21:58:26.231Z,100.00
2022-10-18T22:08:29.150Z,100.00
2022-10-18T22:18:33.994Z,100.00
2022-10-18T22:28:36.402Z,100.00
2022-10-18T22:38:38.974Z,100.00
2022-10-18T22:48:42.259Z,100.00
2022-10-18T22:58:44.914Z,100.00
2022-10-18T23:08:46.967Z,100.00
2022-10-18T23:18:54.162Z,100.00
2022-10-18T23:28:56.291Z,100.00
2022-10-18T23:38:59.214Z,100.00
2022-10-18T23:49:00.798Z,100.00
2022-10-18T23:59:02.647Z,100.00
